Time;durP1;ratioP1;P1;durP2;ratioP2;P2;SDS_P1;SDS_P2;PMS_P1;PMS_P2;Temp;Humidity;BMP_temperature;BMP_pressure;BME280_temperature;BME280_humidity;BME280_pressure;Samples;Min_cycle;Max_cycle;Signal;HPM_P1;HPM_P2
2021/03/26 00:00:48;;;;;;;216.25;97.30;;;;;;;4.49;73.04;101022.78;1756332;81;21151;-75
2021/03/26 00:03:18;;;;;;;191.05;91.20;;;;;;;4.49;73.11;101025.42;1757020;81;21108;-75
2021/03/26 00:05:45;;;;;;;213.20;97.40;;;;;;;4.52;73.17;101027.83;1765197;81;23753;-75
2021/03/26 00:08:12;;;;;;;208.68;95.72;;;;;;;4.49;73.23;101033.34;1780571;80;21124;-75
2021/03/26 00:10:38;;;;;;;194.13;94.35;;;;;;;4.42;73.30;101023.34;1757378;80;21169;-75
2021/03/26 00:13:05;;;;;;;193.25;94.17;;;;;;;4.36;73.35;101027.27;1761508;80;21155;-75
2021/03/26 00:15:33;;;;;;;206.85;97.72;;;;;;;4.28;73.42;101032.30;1787635;80;21147;-74
2021/03/26 00:17:59;;;;;;;213.62;99.58;;;;;;;4.20;73.48;101029.86;1787650;80;22134;-74
2021/03/26 00:20:25;;;;;;;234.65;103.05;;;;;;;4.20;73.55;101035.98;1773893;80;21143;-74
2021/03/26 00:22:51;;;;;;;234.25;106.50;;;;;;;4.20;73.58;101028.53;1767410;80;21105;-74
2021/03/26 00:25:18;;;;;;;264.20;113.85;;;;;;;4.16;73.63;101029.24;1787524;80;21148;-74
2021/03/26 00:27:44;;;;;;;228.75;100.85;;;;;;;4.15;73.65;101030.19;1787591;80;21561;-74
2021/03/26 00:30:11;;;;;;;221.15;93.97;;;;;;;4.14;73.69;101031.17;1774191;80;21306;-74
2021/03/26 00:32:38;;;;;;;236.68;98.15;;;;;;;4.07;73.74;101025.98;1756644;81;21591;-74
2021/03/26 00:35:08;;;;;;;223.07;94.80;;;;;;;4.02;73.78;101024.14;1767201;80;21135;-74
2021/03/26 00:37:34;;;;;;;;;;;;;;;3.96;73.83;101021.96;1787989;80;21152;-74
2021/03/26 00:40:00;;;;;;;183.15;78.60;;;;;;;3.94;73.86;101022.56;1775013;79;20220;-74
2021/03/26 00:42:26;;;;;;;165.47;75.15;;;;;;;3.96;73.96;101023.28;1748228;82;21260;-74
2021/03/26 00:44:52;;;;;;;161.45;73.87;;;;;;;4.02;74.02;101025.45;1753307;80;21176;-75
2021/03/26 00:47:19;;;;;;;157.37;77.03;;;;;;;4.09;74.08;101026.69;1757458;80;21204;-74
2021/03/26 00:49:45;;;;;;;178.30;82.80;;;;;;;4.15;74.12;101024.91;1756679;81;21192;-74
2021/03/26 00:52:11;;;;;;;173.60;77.55;;;;;;;4.18;74.18;101024.71;1756670;81;21188;-74
2021/03/26 00:54:38;;;;;;;141.37;65.97;;;;;;;4.19;74.27;101027.69;1756943;80;21248;-75
2021/03/26 00:57:05;;;;;;;131.32;63.20;;;;;;;4.13;74.28;101028.16;1756473;81;21583;-74
2021/03/26 00:59:31;;;;;;;125.22;62.17;;;;;;;4.07;74.35;101026.45;1756741;80;21177;-74
2021/03/26 01:01:57;;;;;;;118.55;58.78;;;;;;;4.00;74.37;101022.95;1756980;80;21056;-74
2021/03/26 01:04:23;;;;;;;121.60;57.80;;;;;;;3.93;74.37;101024.83;1763508;80;21108;-74
2021/03/26 01:06:50;;;;;;;128.78;60.15;;;;;;;3.85;74.44;101029.81;1755035;81;21198;-74
2021/03/26 01:09:16;;;;;;;136.72;60.55;;;;;;;3.84;74.47;101029.44;1754959;81;21541;-74
2021/03/26 01:11:42;;;;;;;122.85;58.87;;;;;;;3.78;74.49;101034.69;1774608;80;21143;-74
2021/03/26 01:14:13;;;;;;;109.72;54.03;;;;;;;3.75;74.50;101027.48;1772209;80;21162;-74
2021/03/26 01:16:40;;;;;;;105.40;50.03;;;;;;;3.73;74.50;101032.03;1764735;81;21147;-75
2021/03/26 01:19:06;;;;;;;105.80;50.58;;;;;;;3.65;74.53;101025.14;1764952;81;21214;-75
2021/03/26 01:21:34;;;;;;;101.50;49.75;;;;;;;3.55;74.55;101025.44;1764721;81;21667;-74
2021/03/26 01:24:01;;;;;;;88.25;45.73;;;;;;;3.48;74.60;101019.27;1765117;81;21116;-74
2021/03/26 01:26:27;;;;;;;101.30;51.75;;;;;;;3.43;74.61;101014.81;1752180;81;21151;-74
2021/03/26 01:28:53;;;;;;;103.55;48.92;;;;;;;3.43;74.64;101024.05;1704564;82;21174;-74
2021/03/26 01:31:19;;;;;;;102.30;49.55;;;;;;;3.40;74.68;101015.03;1759792;81;21188;-74
2021/03/26 01:33:46;;;;;;;105.63;49.25;;;;;;;3.41;74.74;101014.06;1733732;82;21168;-74
2021/03/26 01:36:13;;;;;;;102.00;48.55;;;;;;;3.42;74.82;101014.44;1751194;81;21638;-74
2021/03/26 01:38:40;;;;;;;101.53;51.73;;;;;;;3.45;74.90;101014.21;1759865;81;21136;-75
2021/03/26 01:41:10;;;;;;;105.15;49.65;;;;;;;3.48;74.96;101019.27;1760571;81;21128;-75
2021/03/26 01:43:38;;;;;;;101.33;51.20;;;;;;;3.57;75.07;101020.89;1759406;81;21195;-75
2021/03/26 01:46:06;;;;;;;100.00;50.12;;;;;;;3.58;75.12;101014.67;1760313;81;21897;-75
2021/03/26 01:48:37;;;;;;;103.42;51.23;;;;;;;3.58;75.17;101011.56;1760258;81;21187;-75
2021/03/26 01:51:07;;;;;;;104.78;51.95;;;;;;;3.62;75.24;101016.14;1739067;81;21148;-75
2021/03/26 01:53:34;;;;;;;;;;;;;;;3.69;75.30;101017.38;1732790;83;21164;-75
2021/03/26 01:56:01;;;;;;;98.47;50.52;;;;;;;3.70;75.35;101017.72;1730281;81;21372;-75
2021/03/26 01:58:30;;;;;;;104.75;53.25;;;;;;;3.71;75.40;101018.09;1744169;81;21184;-75
2021/03/26 02:01:00;;;;;;;108.17;53.15;;;;;;;3.68;75.43;101011.26;1760170;81;21569;-75
2021/03/26 02:03:35;;;;;;;;;;;;;;;3.67;75.46;101007.40;1760561;81;21624;-75
2021/03/26 02:06:10;;;;;;;108.97;53.50;;;;;;;3.62;75.50;101010.39;1704671;82;20448;-75
2021/03/26 02:08:38;;;;;;;107.85;53.58;;;;;;;3.60;75.50;101013.59;1729035;81;21218;-75
2021/03/26 02:11:19;;;;;;;106.90;51.95;;;;;;;3.58;75.52;101015.98;1730188;83;21143;-75
2021/03/26 02:13:45;;;;;;;113.08;57.65;;;;;;;3.57;75.56;101013.82;1748169;80;21147;-75
2021/03/26 02:16:12;;;;;;;102.12;52.35;;;;;;;3.62;75.57;101009.55;1788262;80;21493;-75
2021/03/26 02:18:39;;;;;;;102.35;51.80;;;;;;;3.66;75.63;101011.02;1771176;79;21148;-75
2021/03/26 02:21:16;;;;;;;98.52;51.50;;;;;;;3.68;75.66;101007.77;1756769;81;21253;-75
2021/03/26 02:23:43;;;;;;;110.25;52.23;;;;;;;3.74;75.70;101021.36;1757033;80;22265;-75
2021/03/26 02:26:15;;;;;;;106.63;54.20;;;;;;;3.80;75.75;101020.09;1756740;81;21131;-76
2021/03/26 02:28:41;;;;;;;112.35;56.02;;;;;;;3.80;75.80;101008.22;1756730;81;21620;-75
2021/03/26 02:31:07;;;;;;;103.38;54.80;;;;;;;3.75;75.85;101016.92;1756908;80;21542;-75
2021/03/26 02:33:34;;;;;;;106.87;54.80;;;;;;;3.74;75.92;101017.88;1776038;80;21644;-75
2021/03/26 02:36:21;;;;;;;110.35;54.77;;;;;;;3.81;75.98;101023.07;1773897;80;21237;-75
2021/03/26 02:38:50;;;;;;;114.25;57.38;;;;;;;3.79;76.01;101023.67;1772057;80;21149;-75
2021/03/26 02:41:35;;;;;;;121.37;60.33;;;;;;;3.76;76.07;101026.06;1788139;80;21064;-75
2021/03/26 02:44:27;;;;;;;118.20;56.95;;;;;;;3.76;76.11;101030.49;1787816;79;21199;-75
2021/03/26 02:47:16;;;;;;;124.18;62.35;;;;;;;3.74;76.14;101020.52;1778364;80;21589;-75
2021/03/26 02:50:03;;;;;;;121.62;60.48;;;;;;;3.70;76.17;101019.05;1787835;80;21171;-75
2021/03/26 02:52:53;;;;;;;120.05;59.77;;;;;;;3.67;76.17;101027.18;1765462;78;21545;-75
2021/03/26 02:55:44;;;;;;;110.52;58.83;;;;;;;3.63;76.18;101015.16;1756975;81;21127;-75
2021/03/26 02:58:21;;;;;;;114.85;57.95;;;;;;;3.59;76.21;101019.81;1762920;80;21525;-75
2021/03/26 03:00:51;;;;;;;103.38;55.43;;;;;;;3.57;76.23;101018.25;1786416;80;21201;-75
2021/03/26 03:03:22;;;;;;;;;;;;;;;3.58;76.25;101020.79;1790399;79;21156;-75
2021/03/26 03:05:56;;;;;;;116.85;56.58;;;;;;;3.59;76.28;101021.64;1787989;80;20270;-75
2021/03/26 03:08:25;;;;;;;102.78;53.10;;;;;;;3.58;76.33;101017.30;1787558;80;21200;-75
2021/03/26 03:10:56;;;;;;;109.63;54.60;;;;;;;3.61;76.38;101018.40;1778782;80;21155;-75
2021/03/26 03:13:46;;;;;;;111.37;58.48;;;;;;;3.63;76.44;101012.05;1763158;79;21181;-75
2021/03/26 03:16:18;;;;;;;120.77;60.23;;;;;;;3.65;76.50;101010.64;1764428;81;21183;-75
2021/03/26 03:18:58;;;;;;;118.55;61.70;;;;;;;3.67;76.58;101019.27;1765291;79;21111;-75
2021/03/26 03:21:51;;;;;;;151.35;72.15;;;;;;;3.75;76.62;101030.12;1765289;81;21463;-76
2021/03/26 03:24:35;;;;;;;138.72;69.40;;;;;;;3.67;76.64;101016.63;1765337;81;21178;-75
2021/03/26 03:27:28;;;;;;;139.05;68.40;;;;;;;3.69;76.68;101022.66;1783084;79;21216;-75
2021/03/26 03:30:15;;;;;;;130.00;69.12;;;;;;;3.69;76.72;101017.38;1765338;81;21621;-75
2021/03/26 03:33:15;;;;;;;139.95;70.95;;;;;;;3.67;76.76;101016.63;1765413;79;21725;-75
2021/03/26 03:36:02;;;;;;;132.52;67.32;;;;;;;3.68;76.78;101022.28;1765122;81;21184;-75
2021/03/26 03:38:46;;;;;;;132.05;65.62;;;;;;;3.69;76.80;101015.59;1764752;79;21561;-75
2021/03/26 03:41:29;;;;;;;135.52;63.52;;;;;;;3.72;76.84;101025.06;1786812;79;22152;-76
2021/03/26 03:44:18;;;;;;;145.15;72.12;;;;;;;3.72;76.86;101014.52;1786368;79;21604;-75
2021/03/26 03:47:28;;;;;;;140.30;69.47;;;;;;;3.76;76.87;101021.27;1767129;79;21203;-75
2021/03/26 03:50:17;;;;;;;143.45;72.92;;;;;;;3.83;76.94;101026.45;1765063;81;21580;-75
2021/03/26 03:53:06;;;;;;;144.65;76.12;;;;;;;3.93;76.98;101025.67;1787676;79;21115;-75
2021/03/26 03:55:39;;;;;;;135.52;71.10;;;;;;;4.01;77.04;101018.52;1782209;79;21268;-75
2021/03/26 03:58:19;;;;;;;144.10;73.15;;;;;;;4.10;77.08;101025.75;1765149;79;21394;-75
2021/03/26 04:01:11;;;;;;;139.52;71.33;;;;;;;4.11;77.11;101022.16;1771669;79;21128;-75
2021/03/26 04:04:09;;;;;;;156.07;75.97;;;;;;;4.10;77.16;101017.83;1784673;80;21136;-75
2021/03/26 04:06:55;;;;;;;172.62;86.92;;;;;;;4.08;77.21;101018.44;1786506;80;21117;-75
2021/03/26 04:09:25;;;;;;;153.07;77.62;;;;;;;4.13;77.23;101020.23;1772884;79;21205;-75
2021/03/26 04:12:02;;;;;;;144.35;75.52;;;;;;;4.17;77.24;101019.53;1771335;79;21175;-75
2021/03/26 04:14:47;;;;;;;157.07;80.07;;;;;;;4.12;77.25;101021.19;1762884;80;21147;-75
2021/03/26 04:17:33;;;;;;;148.93;74.87;;;;;;;4.08;77.26;101019.75;1749673;81;21723;-75
2021/03/26 04:20:03;;;;;;;150.57;73.97;;;;;;;4.05;77.28;101022.59;1733316;81;21144;-75
2021/03/26 04:22:31;;;;;;;139.60;71.77;;;;;;;4.05;77.25;101020.45;1765197;81;21210;-75
2021/03/26 04:25:09;;;;;;;138.22;68.83;;;;;;;4.06;77.28;101013.73;1729433;81;21496;-75
2021/03/26 04:27:39;;;;;;;135.05;70.60;;;;;;;4.05;77.29;101013.86;1765001;81;21585;-75
2021/03/26 04:30:15;;;;;;;140.90;70.03;;;;;;;4.09;77.35;101010.02;1764942;81;21147;-75
2021/03/26 04:32:42;;;;;;;139.70;73.20;;;;;;;4.13;77.39;101021.55;1754051;81;21148;-75
2021/03/26 04:35:10;;;;;;;206.87;98.20;;;;;;;4.16;77.43;101025.28;1704356;82;21310;-75
2021/03/26 04:38:04;;;;;;;228.12;106.63;;;;;;;4.22;77.48;101020.86;1760055;81;21148;-74
2021/03/26 04:40:37;;;;;;;469.40;191.32;;;;;;;4.26;77.52;101018.36;1731449;82;21129;-74
2021/03/26 04:43:43;;;;;;;225.72;103.35;;;;;;;4.29;77.56;101011.53;1754284;81;22323;-74
2021/03/26 04:46:32;;;;;;;213.72;100.30;;;;;;;4.27;77.56;101012.61;1703089;83;21215;-74
2021/03/26 04:49:12;;;;;;;196.30;91.57;;;;;;;4.18;77.57;101010.66;1704430;84;21588;-74
2021/03/26 04:51:47;;;;;;;159.48;82.05;;;;;;;4.12;77.61;101018.55;1687879;84;26345;-75
2021/03/26 04:54:40;;;;;;;150.93;81.95;;;;;;;4.11;77.67;101012.92;1753927;81;21197;-75
2021/03/26 04:57:18;;;;;;;155.95;81.17;;;;;;;4.07;77.69;101006.19;1736474;81;21149;-75
2021/03/26 05:00:05;;;;;;;168.40;82.40;;;;;;;4.08;77.71;101013.16;1760418;81;21138;-76
2021/03/26 05:02:31;;;;;;;158.05;77.32;;;;;;;4.06;77.70;101008.45;1760115;81;21176;-75
2021/03/26 05:04:57;;;;;;;174.53;88.62;;;;;;;4.08;77.69;101007.88;1760253;81;21581;-75
2021/03/26 05:07:31;;;;;;;172.47;90.38;;;;;;;4.10;77.69;101009.91;1760259;81;21588;-75
2021/03/26 05:09:59;;;;;;;147.80;76.42;;;;;;;4.13;77.73;101009.67;1760019;81;21109;-75
2021/03/26 05:12:29;;;;;;;145.17;77.72;;;;;;;4.17;77.76;101015.10;1760346;81;21140;-75
2021/03/26 05:15:06;;;;;;;143.10;74.03;;;;;;;4.22;77.79;101010.80;1752496;81;21306;-75
2021/03/26 05:17:43;;;;;;;144.70;74.25;;;;;;;4.30;77.83;101010.58;1771635;80;21153;-75
2021/03/26 05:20:27;;;;;;;143.10;75.47;;;;;;;4.39;77.90;101011.23;1767426;80;21140;-75
2021/03/26 05:23:10;;;;;;;144.72;77.20;;;;;;;4.54;77.91;101015.33;1779137;80;21179;-74
2021/03/26 05:25:40;;;;;;;151.35;78.00;;;;;;;4.62;77.96;101016.55;1733917;80;21073;-74
2021/03/26 05:28:12;;;;;;;146.60;77.03;;;;;;;4.66;78.00;101018.00;1774506;80;22175;-75
2021/03/26 05:30:41;;;;;;;144.87;77.90;;;;;;;4.71;78.02;101026.44;1756770;81;21128;-74
2021/03/26 05:33:33;;;;;;;146.82;78.55;;;;;;;4.75;78.01;101035.81;1766738;80;21139;-74
2021/03/26 05:36:13;;;;;;;175.65;89.22;;;;;;;4.72;78.00;101038.66;1787735;80;21109;-75
2021/03/26 05:39:00;;;;;;;;;;;;;;;4.68;78.00;101034.09;1762182;78;21204;-75
2021/03/26 05:41:52;;;;;;;173.13;89.95;;;;;;;4.67;77.98;101041.67;1780549;80;21301;-75
2021/03/26 05:44:53;;;;;;;166.65;81.72;;;;;;;4.69;77.96;101048.98;1787523;80;21136;-74
2021/03/26 05:47:54;;;;;;;168.78;78.80;;;;;;;4.72;77.93;101049.23;1787900;80;21191;-74
2021/03/26 05:51:12;;;;;;;168.60;81.90;;;;;;;4.75;77.93;101046.38;1788000;80;21596;-74
2021/03/26 05:53:55;;;;;;;155.85;79.50;;;;;;;4.78;77.88;101049.63;1626079;87;21159;-75
2021/03/26 05:56:31;;;;;;;180.45;91.63;;;;;;;4.83;77.89;101043.97;1612864;88;21288;-75
2021/03/26 05:59:20;;;;;;;167.18;89.58;;;;;;;4.87;77.86;101043.63;1625726;88;21198;-75
2021/03/26 06:02:08;;;;;;;175.72;86.82;;;;;;;4.97;77.88;101046.39;1626103;87;24508;-75
2021/03/26 06:05:20;;;;;;;171.55;84.03;;;;;;;5.07;77.90;101048.69;1625204;88;21531;-75
2021/03/26 06:08:06;;;;;;;158.72;83.92;;;;;;;5.11;77.88;101041.36;1632528;87;21211;-75
2021/03/26 06:10:53;;;;;;;246.57;115.77;;;;;;;5.16;77.91;101044.03;1638672;87;21512;-75
2021/03/26 06:13:58;;;;;;;198.30;99.65;;;;;;;5.28;77.92;101040.41;1638747;87;21113;-75
2021/03/26 06:16:52;;;;;;;187.45;95.72;;;;;;;5.46;77.87;101042.93;1638728;86;21163;-75
2021/03/26 06:19:33;;;;;;;168.57;91.30;;;;;;;5.67;77.89;101044.82;1636044;86;21170;-76
2021/03/26 06:22:38;;;;;;;162.82;85.57;;;;;;;5.88;77.88;101048.42;1635154;86;21234;-76
2021/03/26 06:25:19;;;;;;;148.50;81.70;;;;;;;6.04;77.88;101042.27;1635847;87;21614;-76
2021/03/26 06:28:17;;;;;;;160.25;82.70;;;;;;;6.28;77.85;101045.55;1638091;87;21222;-75
2021/03/26 06:31:15;;;;;;;166.82;83.78;;;;;;;6.60;77.78;101032.75;1628186;87;21645;-75
2021/03/26 06:34:20;;;;;;;148.90;79.95;;;;;;;7.10;77.66;101035.92;1634796;87;21243;-76
2021/03/26 06:37:33;;;;;;;141.10;75.62;;;;;;;7.57;77.55;101036.23;1637031;86;21197;-76
2021/03/26 06:40:19;;;;;;;141.28;83.47;;;;;;;8.04;77.51;101023.08;1640995;87;21350;-76
2021/03/26 06:43:07;;;;;;;172.43;105.58;;;;;;;8.56;77.37;101025.47;1633969;85;21192;-77
2021/03/26 06:45:39;;;;;;;143.65;85.22;;;;;;;9.07;77.25;101021.95;1635740;87;21169;-77
2021/03/26 06:48:50;;;;;;;111.22;63.00;;;;;;;9.53;77.12;101020.54;1660356;86;21597;-78
2021/03/26 06:51:46;;;;;;;111.92;62.67;;;;;;;9.85;76.99;101016.08;1618535;86;21170;-77
2021/03/26 06:54:26;;;;;;;102.95;58.42;;;;;;;10.06;76.84;101019.83;1648762;86;21262;-77
2021/03/26 06:57:36;;;;;;;101.95;55.15;;;;;;;10.19;76.67;101017.64;1643796;86;21212;-77
2021/03/26 07:00:48;;;;;;;99.75;58.40;;;;;;;10.19;76.47;101022.13;1642720;87;21459;-77
2021/03/26 07:03:45;;;;;;;110.20;64.47;;;;;;;10.20;76.32;101018.00;1639777;87;21660;-77
2021/03/26 07:06:40;;;;;;;128.38;68.02;;;;;;;10.24;76.15;101024.67;1639726;87;21707;-77
2021/03/26 07:09:42;;;;;;;114.10;64.17;;;;;;;10.29;75.93;101023.73;1612245;89;21592;-77
2021/03/26 07:12:19;;;;;;;121.30;67.32;;;;;;;10.29;75.76;101037.55;1632377;86;21199;-77
2021/03/26 07:14:59;;;;;;;129.70;72.90;;;;;;;10.24;75.53;101035.33;1661516;86;21215;-77
2021/03/26 07:18:03;;;;;;;123.55;68.90;;;;;;;10.19;75.36;101036.30;1613680;89;27247;-77
2021/03/26 07:20:53;;;;;;;133.27;76.95;;;;;;;10.31;75.26;101035.59;1617626;87;21171;-77
2021/03/26 07:24:08;;;;;;;141.85;85.67;;;;;;;10.69;75.09;101041.08;1642532;86;21290;-77
2021/03/26 07:26:52;;;;;;;172.07;99.72;;;;;;;11.09;74.88;101044.02;1634382;86;21636;-77
2021/03/26 07:30:02;;;;;;;195.15;98.37;;;;;;;11.52;74.67;101043.92;1642125;86;21206;-76
2021/03/26 07:32:58;;;;;;;;;;;;;;;11.89;74.42;101042.77;1644563;85;21650;-77
2021/03/26 07:35:48;;;;;;;93.82;55.35;;;;;;;12.28;74.15;101040.34;1646433;86;20611;-78
2021/03/26 07:38:22;;;;;;;90.77;50.30;;;;;;;12.62;73.87;101048.22;1642212;86;21274;-77
2021/03/26 07:41:13;;;;;;;70.45;43.50;;;;;;;12.86;73.54;101049.55;1646936;86;21199;-77
2021/03/26 07:44:23;;;;;;;86.47;49.18;;;;;;;13.03;73.22;101055.21;1648700;86;21135;-77
2021/03/26 07:47:20;;;;;;;99.28;55.08;;;;;;;13.25;72.87;101058.56;1648967;85;21139;-77
2021/03/26 07:50:10;;;;;;;80.47;47.83;;;;;;;13.41;72.48;101057.16;1641154;85;21771;-77
2021/03/26 07:53:14;;;;;;;77.25;46.53;;;;;;;13.71;72.02;101050.70;1802170;77;22884;-78
2021/03/26 07:55:49;;;;;;;71.02;42.35;;;;;;;13.78;71.70;101057.03;1788477;80;21178;-78
2021/03/26 07:58:48;;;;;;;64.32;39.67;;;;;;;13.91;71.32;101055.96;1766178;80;22011;-77
2021/03/26 08:01:37;;;;;;;87.17;51.17;;;;;;;14.04;70.92;101060.24;1769773;80;21596;-77
2021/03/26 08:04:18;;;;;;;88.82;50.10;;;;;;;14.14;70.57;101058.20;1788041;80;21060;-78
2021/03/26 08:07:19;;;;;;;90.38;50.28;;;;;;;14.17;70.23;101065.89;1784610;80;21111;-78
2021/03/26 08:10:17;;;;;;;77.08;46.73;;;;;;;14.17;69.83;101069.07;1756151;81;21151;-78
2021/03/26 08:12:52;;;;;;;66.25;40.38;;;;;;;14.22;69.39;101072.04;1762766;80;22059;-78
2021/03/26 08:16:15;;;;;;;75.30;42.78;;;;;;;14.23;68.93;101071.88;1785819;80;20973;-78
2021/03/26 08:19:05;;;;;;;74.70;41.48;;;;;;;14.31;68.44;101070.49;1784546;80;21187;-78
2021/03/26 08:22:19;;;;;;;65.60;39.70;;;;;;;14.23;67.87;101067.02;1757360;81;22288;-78
2021/03/26 08:25:12;;;;;;;67.90;41.40;;;;;;;14.30;67.53;101075.52;1756972;81;21120;-78
2021/03/26 08:27:45;;;;;;;56.42;31.90;;;;;;;14.47;67.27;101074.42;1759298;80;21988;-79
2021/03/26 08:30:37;;;;;;;49.15;28.15;;;;;;;14.53;66.89;101074.20;1756599;81;21138;-78
2021/03/26 08:33:42;;;;;;;45.10;27.77;;;;;;;14.65;66.53;101067.92;1758798;80;21139;-77
2021/03/26 08:36:55;;;;;;;46.28;28.02;;;;;;;14.73;66.18;101076.76;1757006;81;21155;-77
2021/03/26 08:39:47;;;;;;;41.10;26.35;;;;;;;14.83;65.75;101080.53;1716301;81;21148;-78
2021/03/26 08:42:36;;;;;;;46.70;26.70;;;;;;;14.85;65.30;101082.52;1745804;81;21207;-77
2021/03/26 08:45:13;;;;;;;40.90;25.30;;;;;;;14.86;64.91;101086.88;1752569;81;21160;-78
2021/03/26 08:47:48;;;;;;;49.13;28.70;;;;;;;14.81;64.52;101083.92;1756269;80;21196;-78
2021/03/26 08:50:53;;;;;;;45.28;26.62;;;;;;;14.89;64.21;101080.64;1737572;81;21578;-78
2021/03/26 08:53:41;;;;;;;42.27;24.50;;;;;;;15.18;63.65;101082.56;1725688;81;21160;-78
2021/03/26 08:56:31;;;;;;;37.75;24.57;;;;;;;15.18;63.65;101082.56;1729798;81;21367;-78
2021/03/26 08:59:45;;;;;;;39.00;24.90;;;;;;;15.28;63.11;101080.44;1726257;81;21195;-78
2021/03/26 09:02:48;;;;;;;38.55;23.07;;;;;;;15.40;62.74;101078.98;1747813;81;21183;-77
2021/03/26 09:05:40;;;;;;;38.98;22.65;;;;;;;15.43;62.32;101081.30;1740570;81;21627;-76
2021/03/26 09:08:37;;;;;;;38.33;22.25;;;;;;;15.51;61.86;101075.53;1680479;84;21612;-77
2021/03/26 09:11:23;;;;;;;40.63;22.50;;;;;;;15.56;61.39;101074.45;1704042;82;21413;-77
2021/03/26 09:14:19;;;;;;;34.80;22.02;;;;;;;15.45;60.79;101076.55;1678187;82;21238;-77
2021/03/26 09:17:02;;;;;;;34.75;21.30;;;;;;;15.57;60.53;101074.78;1679751;84;21158;-77
2021/03/26 09:19:39;;;;;;;42.93;24.85;;;;;;;15.59;60.17;101076.26;1693878;83;21169;-77
2021/03/26 09:22:59;;;;;;;35.68;23.52;;;;;;;15.71;59.88;101064.53;1707299;83;21186;-77
2021/03/26 09:25:43;;;;;;;35.48;23.55;;;;;;;15.82;59.53;101074.31;1685386;83;21320;-77
2021/03/26 09:28:15;;;;;;;46.88;27.73;;;;;;;15.87;59.14;101067.84;1685672;83;21197;-77
2021/03/26 09:30:45;;;;;;;32.98;22.95;;;;;;;15.91;58.78;101066.95;1706401;83;21194;-77
2021/03/26 09:33:14;;;;;;;33.18;20.90;;;;;;;15.93;58.48;101072.49;1701366;83;21181;-78
2021/03/26 09:35:55;;;;;;;36.43;22.70;;;;;;;15.95;58.15;101064.22;1712707;83;21241;-78
2021/03/26 09:38:49;;;;;;;35.55;22.55;;;;;;;15.95;57.88;101061.02;1705690;83;21517;-77
2021/03/26 09:41:30;;;;;;;60.52;25.52;;;;;;;16.02;57.54;101062.44;1685446;83;21247;-77
2021/03/26 09:43:58;;;;;;;31.42;21.17;;;;;;;16.09;57.25;101066.04;1657459;85;21630;-77
2021/03/26 09:46:41;;;;;;;40.00;23.47;;;;;;;16.17;56.92;101071.83;1690890;83;21238;-78
2021/03/26 09:49:33;;;;;;;52.20;22.85;;;;;;;16.17;56.55;101066.44;1714079;83;21190;-78
2021/03/26 09:52:37;;;;;;;36.90;24.10;;;;;;;16.27;56.36;101062.42;1707095;83;21215;-78
2021/03/26 09:55:09;;;;;;;32.00;22.37;;;;;;;16.36;56.14;101055.88;1710734;83;21218;-78
2021/03/26 09:57:50;;;;;;;38.67;22.58;;;;;;;16.33;56.02;101057.61;1712203;83;21201;-77
2021/03/26 10:01:12;;;;;;;41.20;24.30;;;;;;;16.36;55.88;101057.23;1712196;83;21213;-78
2021/03/26 10:04:16;;;;;;;73.22;26.42;;;;;;;16.39;55.63;101055.52;1697500;84;21614;-78
2021/03/26 10:07:00;;;;;;;39.63;25.15;;;;;;;16.33;55.28;101056.77;1671796;84;22053;-77
2021/03/26 10:09:39;;;;;;;44.55;25.43;;;;;;;16.32;55.06;101054.63;1693630;83;21193;-77
2021/03/26 10:12:21;;;;;;;40.70;24.43;;;;;;;16.23;54.77;101055.75;1710383;83;21174;-77
2021/03/26 10:15:00;;;;;;;69.65;36.83;;;;;;;15.96;54.66;101055.13;1688272;83;21186;-77
2021/03/26 10:17:46;;;;;;;51.30;29.48;;;;;;;15.72;54.53;101058.14;1719605;83;21137;-77
2021/03/26 10:20:35;;;;;;;42.48;24.57;;;;;;;15.64;54.50;101054.20;1717469;83;21221;-76
2021/03/26 10:23:13;;;;;;;47.00;25.92;;;;;;;15.57;54.44;101053.27;1708841;83;21190;-77
2021/03/26 10:25:47;;;;;;;40.92;24.20;;;;;;;15.45;54.36;101051.02;1716157;83;21602;-76
2021/03/26 10:28:47;;;;;;;40.75;25.57;;;;;;;15.37;54.24;101053.81;1714722;83;21560;-76
2021/03/26 10:31:34;;;;;;;73.55;43.48;;;;;;;15.33;54.20;101045.80;1709005;83;21160;-77
2021/03/26 10:34:03;;;;;;;64.70;36.85;;;;;;;15.37;54.24;101045.75;1697651;83;21379;-76
2021/03/26 10:36:52;;;;;;;38.40;25.00;;;;;;;15.37;54.24;101045.75;1722794;83;21164;-77
2021/03/26 10:39:34;;;;;;;43.45;25.32;;;;;;;15.31;53.88;101051.84;1679185;84;21181;-77
2021/03/26 10:42:09;;;;;;;43.60;25.40;;;;;;;15.27;53.85;101047.05;1702274;83;21179;-77
2021/03/26 10:45:02;;;;;;;46.77;27.42;;;;;;;15.16;53.75;101022.81;1702731;81;21220;-77
2021/03/26 10:47:36;;;;;;;39.85;25.52;;;;;;;15.28;53.74;101030.72;1680377;84;21990;-76
2021/03/26 10:50:13;;;;;;;54.48;29.75;;;;;;;15.45;53.63;101032.70;1674843;84;21185;-77
2021/03/26 10:52:44;;;;;;;58.73;30.57;;;;;;;15.45;53.63;101032.70;1699546;84;21206;-77
2021/03/26 10:55:22;;;;;;;55.25;27.35;;;;;;;15.46;53.21;101029.84;1699801;84;21606;-76
2021/03/26 10:58:05;;;;;;;42.67;25.43;;;;;;;15.46;53.21;101029.84;1690200;82;21190;-76
2021/03/26 11:00:38;;;;;;;44.53;27.75;;;;;;;15.40;53.30;101031.94;1675080;84;21652;-78
2021/03/26 11:03:25;;;;;;;42.33;27.90;;;;;;;15.37;53.30;101024.25;1682636;83;21675;-78
2021/03/26 11:06:01;;;;;;;90.85;47.67;;;;;;;15.42;53.30;101013.76;1674677;84;21218;-77
2021/03/26 11:08:38;;;;;;;64.32;35.45;;;;;;;15.49;53.27;101022.78;1691338;84;21181;-78
2021/03/26 11:11:33;;;;;;;49.35;27.60;;;;;;;15.87;52.97;101011.86;1693292;84;21165;-78
2021/03/26 11:14:32;;;;;;;42.38;27.42;;;;;;;15.87;52.97;101011.86;1699119;83;21639;-78
2021/03/26 11:17:12;;;;;;;66.92;35.70;;;;;;;16.05;53.03;101009.59;1646119;86;21239;-78
2021/03/26 11:19:56;;;;;;;48.02;30.52;;;;;;;16.24;52.87;101007.63;1660909;84;21153;-78
2021/03/26 11:22:26;;;;;;;64.67;38.67;;;;;;;16.29;52.65;100997.10;1680018;84;21133;-77
2021/03/26 11:25:03;;;;;;;47.25;29.95;;;;;;;16.34;52.56;100991.98;1684175;83;21141;-77
2021/03/26 11:27:37;;;;;;;37.00;24.65;;;;;;;16.36;52.38;100991.27;1681894;84;21635;-77
2021/03/26 11:30:42;;;;;;;41.18;25.95;;;;;;;16.38;52.16;100989.23;1679538;84;21686;-76
2021/03/26 11:33:40;;;;;;;49.10;29.65;;;;;;;16.41;52.04;100990.19;1682857;84;21186;-76
2021/03/26 11:36:46;;;;;;;88.52;43.45;;;;;;;16.57;51.88;100983.72;1691819;83;21161;-77
2021/03/26 11:39:21;;;;;;;52.60;33.78;;;;;;;16.71;51.71;100988.72;1731884;81;21162;-77
2021/03/26 11:42:07;;;;;;;37.73;25.52;;;;;;;16.71;51.41;100979.30;1704061;83;21318;-76
2021/03/26 11:44:56;;;;;;;39.38;26.15;;;;;;;16.61;51.06;100974.22;1717188;82;21201;-77
2021/03/26 11:47:34;;;;;;;89.72;48.38;;;;;;;16.49;50.91;100975.26;1697048;83;21174;-76
2021/03/26 11:50:09;;;;;;;54.75;29.57;;;;;;;16.53;50.76;100967.62;1709724;83;21190;-76
2021/03/26 11:52:39;;;;;;;43.87;26.23;;;;;;;16.53;50.64;100969.48;1709569;83;21157;-77
2021/03/26 11:55:09;;;;;;;43.85;23.38;;;;;;;16.56;50.31;100963.73;1692145;83;21174;-77
2021/03/26 11:57:46;;;;;;;36.80;22.60;;;;;;;16.65;50.14;100960.69;1683375;83;21533;-78
2021/03/26 12:00:23;;;;;;;39.00;24.75;;;;;;;16.78;49.93;100962.66;1700692;83;21166;-77
2021/03/26 12:03:17;;;;;;;36.30;24.15;;;;;;;16.84;49.80;100948.41;1693900;83;21870;-77
2021/03/26 12:06:07;;;;;;;40.70;22.90;;;;;;;16.96;49.71;100953.03;1694525;82;21146;-77
2021/03/26 12:08:37;;;;;;;;;;;;;;;17.06;49.46;100951.34;1730306;81;21188;-76
2021/03/26 12:11:14;;;;;;;;;;;;;;;17.08;49.31;100952.48;1653384;85;20242;-77
2021/03/26 12:13:52;;;;;;;35.03;23.22;;;;;;;17.13;49.26;100945.48;1680224;84;20297;-77
2021/03/26 12:16:22;;;;;;;38.20;23.65;;;;;;;17.13;49.18;100946.83;1684560;84;21186;-77
2021/03/26 12:19:00;;;;;;;33.85;24.15;;;;;;;17.00;49.01;100938.64;1708371;83;21589;-77